createdAt,value
2019-03-09T00:01:48.152Z,6.70
2019-03-09T00:04:15.396Z,9.03
2019-03-09T00:06:42.630Z,5.73
2019-03-09T00:09:09.961Z,3.47
2019-03-09T00:11:37.479Z,7.80
2019-03-09T00:14:04.723Z,8.27
2019-03-09T00:16:32.171Z,6.17
2019-03-09T00:18:59.445Z,12.97
2019-03-09T00:21:26.691Z,6.93
2019-03-09T00:23:55.602Z,9.70
2019-03-09T00:26:27.457Z,8.00
2019-03-09T00:29:05.678Z,8.27
2019-03-09T00:31:46.338Z,5.10
2019-03-09T00:34:13.615Z,5.43
2019-03-09T00:36:40.854Z,6.53
2019-03-09T00:39:08.402Z,9.07
2019-03-09T00:41:35.674Z,4.97
2019-03-09T00:44:02.918Z,7.03
2019-03-09T00:46:30.195Z,8.33
2019-03-09T00:48:57.469Z,6.93
2019-03-09T00:51:24.805Z,7.63
2019-03-09T00:53:52.054Z,6.70
2019-03-09T00:56:19.332Z,6.83
2019-03-09T00:58:46.573Z,9.90
2019-03-09T01:01:14.454Z,7.20
2019-03-09T01:03:41.730Z,10.87
2019-03-09T01:06:08.973Z,6.10
2019-03-09T01:08:36.247Z,5.13
2019-03-09T01:11:03.557Z,7.77
2019-03-09T01:13:30.830Z,7.77
2019-03-09T01:15:58.075Z,12.27
2019-03-09T01:18:25.318Z,9.10
2019-03-09T01:20:52.860Z,10.70
2019-03-09T01:23:20.144Z,5.27
2019-03-09T01:25:47.385Z,5.50
2019-03-09T01:28:14.630Z,4.87
2019-03-09T01:30:41.904Z,7.77
2019-03-09T01:33:09.172Z,6.37
2019-03-09T01:35:36.444Z,10.63
2019-03-09T01:38:03.784Z,11.80
2019-03-09T01:40:31.039Z,13.03
2019-03-09T01:42:58.299Z,8.50
2019-03-09T01:45:25.541Z,9.50
2019-03-09T01:47:52.881Z,4.33
2019-03-09T01:50:20.376Z,9.03
2019-03-09T01:52:47.646Z,6.10
2019-03-09T01:55:14.890Z,5.17
2019-03-09T01:57:42.126Z,5.47
2019-03-09T02:00:11.183Z,9.57
2019-03-09T02:02:38.536Z,14.17
2019-03-09T02:05:06.269Z,9.40
2019-03-09T02:07:33.514Z,7.07
2019-03-09T02:10:01.147Z,4.23
2019-03-09T02:12:28.647Z,5.20
2019-03-09T02:14:55.994Z,11.33
2019-03-09T02:17:23.611Z,5.17
2019-03-09T02:19:50.886Z,7.40
2019-03-09T02:22:18.137Z,5.40
2019-03-09T02:24:45.378Z,3.17
2019-03-09T02:27:12.723Z,6.97
2019-03-09T02:29:39.966Z,4.07
2019-03-09T02:32:07.239Z,5.80
2019-03-09T02:34:34.522Z,7.00
2019-03-09T02:37:01.777Z,5.90
2019-03-09T02:39:30.687Z,7.13
2019-03-09T02:41:57.939Z,13.83
2019-03-09T02:44:25.188Z,5.07
2019-03-09T02:46:52.521Z,4.80
2019-03-09T02:49:19.840Z,4.80
2019-03-09T02:51:47.117Z,4.07
2019-03-09T02:54:14.360Z,5.10
2019-03-09T02:56:41.626Z,9.80
2019-03-09T02:59:08.871Z,9.80
2019-03-09T03:01:37.852Z,4.53
2019-03-09T03:04:05.116Z,8.40
2019-03-09T03:06:32.391Z,5.13
2019-03-09T03:08:59.637Z,4.20
2019-03-09T03:11:26.909Z,6.03
2019-03-09T03:13:54.249Z,6.13
2019-03-09T03:16:21.525Z,4.93
2019-03-09T03:18:48.794Z,6.60
2019-03-09T03:21:16.042Z,6.23
2019-03-09T03:23:43.311Z,4.57
2019-03-09T03:26:10.560Z,4.03
2019-03-09T03:28:37.814Z,3.93
2019-03-09T03:31:05.099Z,4.03
2019-03-09T03:33:32.405Z,3.03
2019-03-09T03:35:59.680Z,3.20
2019-03-09T03:38:27.187Z,3.17
2019-03-09T03:40:54.459Z,2.93
2019-03-09T03:43:21.776Z,4.40
2019-03-09T03:45:49.042Z,2.47
2019-03-09T03:48:16.293Z,2.10
2019-03-09T03:50:43.571Z,3.27
2019-03-09T03:53:10.849Z,4.57
2019-03-09T03:55:38.206Z,5.10
2019-03-09T03:58:05.492Z,2.70
2019-03-09T04:00:32.760Z,1.50
2019-03-09T04:03:00.238Z,3.60
2019-03-09T04:05:27.511Z,2.77
2019-03-09T04:07:54.860Z,4.77
2019-03-09T04:10:22.112Z,2.60
2019-03-09T04:12:49.534Z,2.30
2019-03-09T04:15:16.774Z,5.50
2019-03-09T04:17:44.047Z,2.50
2019-03-09T04:20:11.565Z,4.67
2019-03-09T04:22:38.876Z,4.00
2019-03-09T04:25:06.926Z,2.40
2019-03-09T04:27:34.450Z,1.47
2019-03-09T04:30:01.718Z,4.93
2019-03-09T04:32:29.004Z,2.27
2019-03-09T04:34:56.260Z,1.30
2019-03-09T04:37:23.568Z,2.70
2019-03-09T04:39:50.837Z,1.70
2019-03-09T04:42:18.081Z,2.40
2019-03-09T04:44:45.349Z,1.97
2019-03-09T04:47:12.595Z,2.30
2019-03-09T04:49:39.879Z,1.80
2019-03-09T04:52:07.118Z,0.80
2019-03-09T04:54:34.360Z,1.10
2019-03-09T04:57:01.639Z,1.10
2019-03-09T04:59:28.914Z,0.97
2019-03-09T05:01:56.158Z,1.70
2019-03-09T05:04:27.874Z,1.43
2019-03-09T05:06:55.119Z,0.73
2019-03-09T05:09:26.741Z,2.20
2019-03-09T05:11:54.012Z,0.90
2019-03-09T05:14:21.282Z,1.00
2019-03-09T05:16:48.831Z,0.80
2019-03-09T05:19:16.151Z,0.60
2019-03-09T05:21:43.389Z,0.90
2019-03-09T05:24:10.664Z,0.60
2019-03-09T05:26:38.202Z,1.20
2019-03-09T05:29:05.474Z,0.60
2019-03-09T05:31:32.968Z,1.33
2019-03-09T05:34:00.497Z,1.10
2019-03-09T05:36:27.745Z,0.50
2019-03-09T05:38:55.266Z,1.33
2019-03-09T05:41:22.513Z,0.63
2019-03-09T05:43:49.786Z,0.70
2019-03-09T05:46:17.023Z,0.60
2019-03-09T05:48:44.290Z,0.60
2019-03-09T05:51:11.564Z,1.00
2019-03-09T05:53:38.834Z,0.87
2019-03-09T05:56:07.807Z,1.10
2019-03-09T05:58:35.228Z,0.90
2019-03-09T06:01:02.501Z,0.70
2019-03-09T06:03:29.752Z,0.87
2019-03-09T06:05:56.990Z,0.50
2019-03-09T06:08:24.258Z,0.90
2019-03-09T06:10:51.522Z,0.60
2019-03-09T06:13:18.797Z,0.60
2019-03-09T06:15:46.049Z,0.50
2019-03-09T06:18:13.562Z,0.60
2019-03-09T06:20:40.834Z,0.60
2019-03-09T06:23:08.084Z,0.60
2019-03-09T06:25:35.351Z,0.50
2019-03-09T06:28:02.625Z,0.70
2019-03-09T06:30:30.139Z,1.83
2019-03-09T06:33:16.851Z,0.67
2019-03-09T06:35:44.558Z,1.60
2019-03-09T06:38:19.642Z,0.50
2019-03-09T06:40:46.912Z,0.80
2019-03-09T06:43:14.157Z,0.90
2019-03-09T06:45:41.417Z,1.30
2019-03-09T06:48:08.939Z,0.60
2019-03-09T06:50:36.222Z,0.63
2019-03-09T06:53:03.565Z,0.67
2019-03-09T06:55:31.069Z,1.07
2019-03-09T06:57:58.317Z,0.70
2019-03-09T07:00:27.125Z,0.60
2019-03-09T07:02:54.394Z,0.87
2019-03-09T07:05:21.673Z,0.77
2019-03-09T07:07:49.212Z,0.70
2019-03-09T07:10:16.479Z,0.97
2019-03-09T07:12:43.721Z,0.60
2019-03-09T07:15:21.279Z,0.93
2019-03-09T07:17:48.593Z,1.43
2019-03-09T07:20:15.835Z,0.60
2019-03-09T07:22:43.106Z,1.17
2019-03-09T07:25:10.346Z,1.10
2019-03-09T07:27:37.911Z,0.80
2019-03-09T07:30:12.655Z,0.90
2019-03-09T07:32:40.177Z,1.17
2019-03-09T07:35:08.233Z,0.80
2019-03-09T07:37:36.975Z,0.60
2019-03-09T07:40:06.260Z,1.27
2019-03-09T07:42:33.530Z,0.90
2019-03-09T07:45:00.774Z,0.50
2019-03-09T07:47:28.109Z,1.53
2019-03-09T07:49:55.384Z,0.60
2019-03-09T07:52:29.734Z,0.73
2019-03-09T07:54:57.315Z,0.60
2019-03-09T07:57:24.554Z,1.40
2019-03-09T07:59:52.071Z,2.27
2019-03-09T08:02:19.337Z,1.00
2019-03-09T08:04:46.615Z,2.30
2019-03-09T08:07:14.863Z,1.03
2019-03-09T08:09:42.278Z,0.70
2019-03-09T08:12:12.888Z,0.70
2019-03-09T08:14:41.817Z,0.70
2019-03-09T08:17:11.746Z,0.83
2019-03-09T08:19:39.071Z,0.90
2019-03-09T08:22:06.342Z,1.47
2019-03-09T08:24:33.590Z,0.70
2019-03-09T08:27:01.018Z,2.10
2019-03-09T08:29:28.280Z,0.90
2019-03-09T08:31:55.578Z,0.70
2019-03-09T08:34:22.849Z,1.17
2019-03-09T08:36:50.097Z,1.03
2019-03-09T08:39:17.366Z,0.60
2019-03-09T08:41:44.643Z,1.20
2019-03-09T08:44:11.955Z,1.80
2019-03-09T08:46:39.497Z,0.90
2019-03-09T08:49:07.018Z,2.77
2019-03-09T08:51:34.518Z,0.50
2019-03-09T08:54:01.868Z,1.07
2019-03-09T08:56:29.166Z,0.83
2019-03-09T08:58:56.433Z,1.13
2019-03-09T09:01:23.693Z,3.93
2019-03-09T09:03:51.031Z,0.70
2019-03-09T09:06:18.273Z,1.20
2019-03-09T09:08:45.535Z,1.70
2019-03-09T09:11:12.812Z,1.40
2019-03-09T09:13:40.073Z,1.37
2019-03-09T09:16:07.570Z,1.53
2019-03-09T09:18:35.081Z,1.00
2019-03-09T09:21:02.358Z,2.00
2019-03-09T09:23:29.839Z,1.30
2019-03-09T09:25:57.082Z,1.63
2019-03-09T09:28:24.359Z,0.80
2019-03-09T09:30:51.602Z,1.27
2019-03-09T09:33:18.883Z,1.03
2019-03-09T09:35:46.189Z,1.13
2019-03-09T09:38:13.461Z,1.43
2019-03-09T09:40:40.706Z,2.40
2019-03-09T09:43:08.052Z,1.37
2019-03-09T09:45:35.293Z,1.87
2019-03-09T09:48:02.847Z,0.87
2019-03-09T09:50:30.093Z,1.40
2019-03-09T09:52:57.628Z,1.47
2019-03-09T09:55:24.870Z,1.20
2019-03-09T09:57:52.114Z,1.73
2019-03-09T10:00:23.367Z,1.03
2019-03-09T10:02:50.875Z,2.33
2019-03-09T10:05:18.455Z,1.93
2019-03-09T10:07:46.027Z,3.90
2019-03-09T10:10:14.380Z,1.20
2019-03-09T10:12:41.650Z,1.10
2019-03-09T10:15:12.734Z,1.20
2019-03-09T10:17:39.975Z,2.30
2019-03-09T10:20:08.905Z,2.20
2019-03-09T10:22:36.229Z,2.03
2019-03-09T10:25:06.107Z,2.83
2019-03-09T10:27:33.349Z,1.20
2019-03-09T10:30:00.755Z,1.83
2019-03-09T10:32:28.003Z,1.10
2019-03-09T10:34:55.262Z,1.53
2019-03-09T10:37:22.778Z,1.00
2019-03-09T10:39:50.025Z,1.30
2019-03-09T10:42:17.298Z,0.93
2019-03-09T10:44:44.790Z,1.57
2019-03-09T10:47:12.057Z,3.13
2019-03-09T10:49:39.320Z,2.20
2019-03-09T10:52:06.571Z,6.60
2019-03-09T10:54:36.213Z,1.70
2019-03-09T10:57:03.309Z,2.50
2019-03-09T10:59:30.828Z,2.70
2019-03-09T11:01:58.069Z,1.63
2019-03-09T11:04:27.825Z,1.50
2019-03-09T11:06:54.551Z,1.63
2019-03-09T11:09:21.826Z,1.60
2019-03-09T11:11:49.319Z,1.20
2019-03-09T11:14:16.590Z,2.07
2019-03-09T11:16:43.832Z,1.83
2019-03-09T11:19:11.344Z,1.07
2019-03-09T11:21:38.581Z,1.47
2019-03-09T11:24:06.243Z,2.40
2019-03-09T11:26:33.663Z,1.40
2019-03-09T11:29:01.131Z,1.60
2019-03-09T11:31:28.664Z,1.63
2019-03-09T11:33:56.022Z,1.30
2019-03-09T11:36:23.553Z,3.23
2019-03-09T11:38:50.875Z,1.43
2019-03-09T11:41:19.300Z,2.93
2019-03-09T11:43:46.865Z,1.40
2019-03-09T11:46:14.442Z,1.90
2019-03-09T11:48:41.842Z,1.80
2019-03-09T11:51:09.110Z,1.90
2019-03-09T11:53:36.353Z,1.43
2019-03-09T11:56:03.697Z,1.83
2019-03-09T11:58:31.285Z,1.53
2019-03-09T12:00:58.550Z,2.40
2019-03-09T12:03:25.795Z,2.13
2019-03-09T12:05:53.070Z,1.40
2019-03-09T12:08:20.309Z,1.37
2019-03-09T12:10:47.622Z,1.17
2019-03-09T12:13:14.900Z,1.30
2019-03-09T12:15:42.144Z,1.53
2019-03-09T12:18:09.419Z,1.70
2019-03-09T12:20:36.655Z,1.00
2019-03-09T12:23:14.157Z,2.33
2019-03-09T12:25:41.474Z,1.37
2019-03-09T12:28:08.722Z,2.27
2019-03-09T12:30:35.992Z,3.10
2019-03-09T12:33:03.258Z,1.50
2019-03-09T12:35:30.498Z,0.90
2019-03-09T12:37:57.770Z,1.40
2019-03-09T12:40:25.042Z,1.73
2019-03-09T12:42:52.313Z,1.33
2019-03-09T12:45:19.553Z,0.73
2019-03-09T12:47:46.828Z,1.00
2019-03-09T12:50:15.611Z,1.63
2019-03-09T12:52:42.881Z,1.10
2019-03-09T12:55:10.153Z,1.37
2019-03-09T12:57:37.413Z,1.13
2019-03-09T13:00:06.696Z,0.87
2019-03-09T13:02:33.965Z,1.10
2019-03-09T13:05:01.484Z,1.97
2019-03-09T13:07:29.138Z,1.30
2019-03-09T13:09:56.473Z,1.20
2019-03-09T13:12:23.720Z,1.50
2019-03-09T13:14:50.993Z,1.13
2019-03-09T13:17:18.306Z,1.33
2019-03-09T13:19:45.574Z,1.23
2019-03-09T13:22:12.851Z,0.90
2019-03-09T13:24:40.113Z,0.90
2019-03-09T13:27:07.394Z,1.00
2019-03-09T13:29:34.718Z,0.80
2019-03-09T13:32:01.969Z,0.93
2019-03-09T13:34:29.234Z,1.17
2019-03-09T13:36:56.477Z,0.80
2019-03-09T13:39:23.759Z,1.07
2019-03-09T13:41:51.026Z,0.90
2019-03-09T13:44:18.266Z,1.57
2019-03-09T13:46:45.510Z,2.30
2019-03-09T13:49:12.781Z,0.90
2019-03-09T13:51:40.030Z,0.70
2019-03-09T13:54:07.298Z,1.43
2019-03-09T13:56:34.545Z,1.57
2019-03-09T13:59:02.152Z,0.93
2019-03-09T14:01:29.647Z,0.70
2019-03-09T14:03:56.932Z,0.70
2019-03-09T14:06:24.254Z,0.70
2019-03-09T14:08:51.969Z,0.83
2019-03-09T14:11:19.288Z,1.53
2019-03-09T14:13:46.529Z,0.70
2019-03-09T14:16:13.803Z,0.67
2019-03-09T14:18:41.098Z,0.70
2019-03-09T14:21:08.615Z,0.90
2019-03-09T14:23:36.110Z,0.63
2019-03-09T14:26:03.386Z,0.50
2019-03-09T14:28:30.706Z,0.90
2019-03-09T14:30:58.800Z,0.60
2019-03-09T14:33:28.697Z,4.83
2019-03-09T14:35:55.461Z,0.50
2019-03-09T14:38:22.806Z,0.60
2019-03-09T14:40:50.326Z,0.60
2019-03-09T14:43:17.599Z,0.50
2019-03-09T14:45:45.428Z,2.20
2019-03-09T14:48:12.734Z,1.27
2019-03-09T14:50:39.980Z,0.50
2019-03-09T14:53:07.245Z,1.10
2019-03-09T14:55:34.763Z,0.70
2019-03-09T14:58:02.922Z,1.10
2019-03-09T15:00:30.278Z,0.83
2019-03-09T15:02:57.608Z,0.80
2019-03-09T15:05:25.128Z,0.80
2019-03-09T15:07:52.437Z,0.70
2019-03-09T15:10:19.713Z,0.60
2019-03-09T15:12:46.958Z,0.80
2019-03-09T15:15:20.314Z,0.80
2019-03-09T15:17:47.666Z,1.17
2019-03-09T15:20:15.384Z,1.53
2019-03-09T15:22:42.621Z,1.93
2019-03-09T15:25:11.423Z,1.90
2019-03-09T15:27:38.934Z,1.80
2019-03-09T15:30:08.059Z,3.03
2019-03-09T15:32:35.354Z,2.33
2019-03-09T15:35:02.618Z,2.13
2019-03-09T15:37:29.890Z,2.40
2019-03-09T15:39:57.386Z,1.97
2019-03-09T15:42:24.662Z,2.50
2019-03-09T15:44:51.938Z,6.30
2019-03-09T15:47:19.214Z,2.73
2019-03-09T15:49:46.713Z,4.33
2019-03-09T15:52:13.980Z,4.00
2019-03-09T15:54:41.222Z,3.97
2019-03-09T15:57:08.497Z,3.50
2019-03-09T15:59:35.809Z,7.37
2019-03-09T16:02:07.394Z,9.10
2019-03-09T16:04:34.918Z,7.87
2019-03-09T16:07:03.723Z,7.07
2019-03-09T16:09:30.994Z,6.03
2019-03-09T16:11:58.516Z,7.50
2019-03-09T16:14:26.017Z,5.53
2019-03-09T16:16:53.290Z,6.07
2019-03-09T16:19:20.530Z,5.83
2019-03-09T16:21:48.083Z,9.50
2019-03-09T16:24:15.682Z,9.80
2019-03-09T16:26:42.985Z,5.60
2019-03-09T16:29:10.657Z,9.70
2019-03-09T16:31:37.995Z,6.03
2019-03-09T16:34:05.350Z,9.27
2019-03-09T16:36:32.618Z,6.90
2019-03-09T16:39:00.181Z,9.23
2019-03-09T16:41:27.505Z,7.97
2019-03-09T16:43:54.987Z,11.60
2019-03-09T16:46:22.715Z,9.20
2019-03-09T16:48:50.805Z,12.87
2019-03-09T16:51:18.578Z,10.20
2019-03-09T16:53:45.988Z,6.67
2019-03-09T16:56:13.226Z,7.00
2019-03-09T16:58:40.481Z,7.90
2019-03-09T17:01:07.758Z,10.40
2019-03-09T17:03:35.304Z,7.37
2019-03-09T17:06:02.800Z,16.27
2019-03-09T17:08:30.074Z,9.03
2019-03-09T17:10:57.363Z,14.13
2019-03-09T17:13:25.697Z,11.93
2019-03-09T17:15:52.993Z,12.10
2019-03-09T17:18:20.257Z,8.10
2019-03-09T17:20:48.603Z,11.10
2019-03-09T17:23:15.826Z,11.00
2019-03-09T17:25:49.381Z,11.63
2019-03-09T17:28:16.750Z,8.67
2019-03-09T17:30:44.027Z,12.63
2019-03-09T17:33:11.514Z,15.30
2019-03-09T17:35:38.801Z,9.30
2019-03-09T17:38:06.086Z,10.70
2019-03-09T17:40:33.626Z,9.80
2019-03-09T17:43:00.876Z,9.27
2019-03-09T17:45:28.295Z,11.20
2019-03-09T17:47:55.594Z,10.90
2019-03-09T17:50:23.102Z,9.40
2019-03-09T17:52:50.670Z,12.97
2019-03-09T17:55:18.176Z,11.70
2019-03-09T17:57:45.694Z,8.73
2019-03-09T18:00:16.875Z,11.70
2019-03-09T18:02:44.122Z,9.30
2019-03-09T18:05:16.923Z,9.20
2019-03-09T18:07:45.510Z,8.47
2019-03-09T18:10:15.680Z,10.93
2019-03-09T18:12:43.283Z,12.83
2019-03-09T18:15:11.074Z,10.00
2019-03-09T18:17:38.971Z,7.13
2019-03-09T18:20:08.663Z,11.00
2019-03-09T18:22:36.115Z,10.10
2019-03-09T18:25:04.390Z,11.83
2019-03-09T18:27:31.925Z,16.87
2019-03-09T18:29:59.452Z,15.58
2019-03-09T18:32:27.159Z,9.60
2019-03-09T18:34:55.129Z,18.97
2019-03-09T18:37:23.157Z,18.17
2019-03-09T18:39:50.561Z,11.83
2019-03-09T18:42:17.853Z,8.43
2019-03-09T18:44:45.108Z,13.30
2019-03-09T18:47:12.390Z,12.80
2019-03-09T18:49:39.738Z,10.03
2019-03-09T18:52:07.078Z,11.03
2019-03-09T18:54:34.354Z,11.45
2019-03-09T18:57:01.853Z,8.53
2019-03-09T18:59:29.402Z,15.70
2019-03-09T19:01:56.643Z,16.17
2019-03-09T19:04:23.909Z,15.40
2019-03-09T19:06:51.437Z,11.00
2019-03-09T19:09:18.684Z,9.53
2019-03-09T19:11:46.207Z,16.57
2019-03-09T19:14:13.458Z,8.70
2019-03-09T19:16:40.997Z,14.93
2019-03-09T19:19:08.603Z,13.00
2019-03-09T19:21:35.874Z,9.93
2019-03-09T19:24:03.411Z,12.10
2019-03-09T19:26:30.689Z,13.00
2019-03-09T19:28:58.307Z,16.50
2019-03-09T19:31:25.807Z,6.37
2019-03-09T19:33:53.085Z,11.87
2019-03-09T19:36:20.361Z,20.57
2019-03-09T19:38:47.636Z,135.57
2019-03-09T19:41:14.895Z,52.47
2019-03-09T19:43:42.162Z,11.00
2019-03-09T19:46:09.722Z,14.50
2019-03-09T19:48:37.002Z,13.53
2019-03-09T19:51:04.267Z,20.00
2019-03-09T19:53:31.629Z,11.70
2019-03-09T19:55:59.148Z,11.90
2019-03-09T19:58:26.430Z,15.37
2019-03-09T20:00:53.676Z,13.90
2019-03-09T20:03:21.289Z,10.27
2019-03-09T20:05:49.025Z,7.67
2019-03-09T20:08:16.450Z,18.43
2019-03-09T20:10:43.729Z,11.03
2019-03-09T20:13:11.077Z,9.73
2019-03-09T20:15:38.358Z,14.90
2019-03-09T20:18:05.878Z,12.60
2019-03-09T20:20:33.175Z,15.47
2019-03-09T20:23:00.703Z,12.77
2019-03-09T20:25:28.640Z,14.37
2019-03-09T20:27:55.998Z,10.40
2019-03-09T20:30:23.589Z,14.27
2019-03-09T20:32:50.857Z,16.53
2019-03-09T20:35:18.135Z,12.50
2019-03-09T20:37:45.418Z,14.50
2019-03-09T20:40:16.046Z,10.37
2019-03-09T20:42:43.323Z,12.03
2019-03-09T20:45:11.778Z,11.57
2019-03-09T20:47:39.013Z,7.87
2019-03-09T20:50:07.830Z,11.23
2019-03-09T20:52:35.087Z,15.57
2019-03-09T20:55:02.613Z,11.67
2019-03-09T20:57:29.892Z,16.17
2019-03-09T20:59:57.138Z,15.23
2019-03-09T21:02:24.427Z,11.70
2019-03-09T21:04:51.954Z,15.60
2019-03-09T21:07:19.507Z,16.47
2019-03-09T21:09:48.079Z,20.47
2019-03-09T21:12:15.510Z,14.47
2019-03-09T21:14:42.784Z,19.73
2019-03-09T21:17:10.353Z,15.70
2019-03-09T21:19:37.603Z,18.10
2019-03-09T21:22:05.127Z,15.93
2019-03-09T21:24:32.407Z,18.27
2019-03-09T21:26:59.938Z,19.77
2019-03-09T21:29:27.209Z,21.13
2019-03-09T21:31:54.465Z,18.03
2019-03-09T21:34:21.998Z,18.37
2019-03-09T21:36:49.522Z,21.07
2019-03-09T21:39:16.793Z,19.33
2019-03-09T21:41:44.295Z,19.57
2019-03-09T21:44:11.639Z,18.63
2019-03-09T21:46:38.885Z,15.97
2019-03-09T21:49:06.162Z,14.50
2019-03-09T21:51:33.409Z,19.70
2019-03-09T21:54:00.801Z,19.07
2019-03-09T21:56:28.074Z,21.07
2019-03-09T21:58:55.324Z,17.30
2019-03-09T22:01:22.602Z,15.63
2019-03-09T22:03:49.855Z,21.67
2019-03-09T22:06:17.136Z,24.00
2019-03-09T22:08:44.682Z,22.03
2019-03-09T22:11:12.514Z,27.60
2019-03-09T22:13:39.768Z,21.50
2019-03-09T22:16:07.041Z,19.40
2019-03-09T22:18:34.289Z,16.87
2019-03-09T22:21:01.838Z,22.53
2019-03-09T22:23:29.094Z,21.63
2019-03-09T22:25:56.350Z,19.73
2019-03-09T22:28:23.628Z,16.00
2019-03-09T22:30:50.902Z,18.77
2019-03-09T22:33:18.181Z,22.10
2019-03-09T22:35:45.450Z,28.07
2019-03-09T22:38:14.948Z,22.10
2019-03-09T22:40:41.954Z,24.67
2019-03-09T22:43:09.392Z,23.10
2019-03-09T22:45:36.648Z,15.80
2019-03-09T22:48:03.926Z,20.50
2019-03-09T22:50:31.207Z,30.13
2019-03-09T22:52:58.450Z,24.83
2019-03-09T22:55:25.981Z,13.17
2019-03-09T22:57:53.240Z,23.80
2019-03-09T23:00:24.186Z,23.77
2019-03-09T23:02:51.812Z,28.57
2019-03-09T23:05:19.127Z,20.80
2019-03-09T23:07:46.401Z,20.60
2019-03-09T23:10:20.156Z,16.87
2019-03-09T23:12:47.426Z,21.77
2019-03-09T23:15:15.439Z,17.67
2019-03-09T23:17:42.782Z,22.40
2019-03-09T23:20:11.029Z,26.37
2019-03-09T23:22:38.351Z,23.40
2019-03-09T23:25:05.898Z,18.90
2019-03-09T23:27:33.175Z,23.03
2019-03-09T23:30:00.531Z,21.00
2019-03-09T23:32:27.805Z,18.27
2019-03-09T23:34:55.338Z,24.37
2019-03-09T23:37:22.581Z,13.00
2019-03-09T23:39:50.120Z,22.30
2019-03-09T23:42:17.365Z,19.87
2019-03-09T23:44:44.896Z,25.30
2019-03-09T23:47:12.153Z,21.37
2019-03-09T23:49:39.673Z,19.97
2019-03-09T23:52:06.914Z,27.77
2019-03-09T23:54:34.198Z,25.13
2019-03-09T23:57:01.702Z,22.67
2019-03-09T23:59:29.194Z,14.90
